Time;durP1;ratioP1;P1;durP2;ratioP2;P2;SDS_P1;SDS_P2;PMS_P1;PMS_P2;Temp;Humidity;BMP_temperature;BMP_pressure;BME280_temperature;BME280_humidity;BME280_pressure;Samples;Min_cycle;Max_cycle;Signal;HPM_P1;HPM_P2
2021/09/14 00:01:26;;;;;;;11.45;6.72;;;;;;;23.36;44.81;101284.81;4976759;28;20034;-61
2021/09/14 00:03:51;;;;;;;11.35;7.07;;;;;;;23.32;44.70;101291.72;4976968;28;20027;-61
2021/09/14 00:06:16;;;;;;;15.05;8.25;;;;;;;23.29;44.89;101289.41;4976616;28;20502;-61
2021/09/14 00:08:42;;;;;;;9.95;7.45;;;;;;;23.25;44.93;101298.22;4978049;28;20527;-62
2021/09/14 00:11:07;;;;;;;9.80;6.45;;;;;;;23.18;44.91;101292.69;4977648;28;20035;-62
2021/09/14 00:13:33;;;;;;;12.57;6.57;;;;;;;23.11;45.50;101286.34;4977609;28;20062;-62
2021/09/14 00:15:58;;;;;;;11.52;6.60;;;;;;;23.02;45.16;101282.06;4977629;28;20035;-62
2021/09/14 00:18:23;;;;;;;12.85;7.47;;;;;;;22.92;45.57;101276.13;4960416;28;20118;-61
2021/09/14 00:20:49;;;;;;;12.90;7.47;;;;;;;22.86;44.89;101282.38;4960231;28;20081;-61
2021/09/14 00:23:14;;;;;;;10.48;7.18;;;;;;;22.80;45.76;101288.63;4977263;28;20038;-63
2021/09/14 00:25:39;;;;;;;12.35;8.85;;;;;;;22.74;44.93;101283.94;4977485;28;20117;-62
2021/09/14 00:28:05;;;;;;;11.43;7.00;;;;;;;22.69;46.08;101281.81;4977367;28;20062;-62
2021/09/14 00:30:30;;;;;;;14.98;7.72;;;;;;;22.66;45.08;101281.34;4977362;28;20027;-63
2021/09/14 00:32:56;;;;;;;12.02;7.15;;;;;;;22.59;45.50;101279.38;4977410;28;20097;-62
2021/09/14 00:35:21;;;;;;;11.45;7.00;;;;;;;22.53;46.21;101282.88;4976323;28;20518;-63
2021/09/14 00:37:47;;;;;;;10.95;7.25;;;;;;;22.46;45.16;101279.25;4976496;28;20037;-62
2021/09/14 00:40:12;;;;;;;15.30;7.35;;;;;;;22.42;45.31;101291.59;4978079;28;20074;-62
2021/09/14 00:42:57;;;;;;;13.05;7.18;;;;;;;22.37;45.22;101288.59;4959998;28;20065;-62
2021/09/14 00:45:23;;;;;;;12.13;7.43;;;;;;;22.32;45.22;101285.63;4977278;28;20038;-62
2021/09/14 00:47:48;;;;;;;12.57;6.43;;;;;;;22.27;45.87;101279.91;4977159;28;20097;-64
2021/09/14 00:50:14;;;;;;;13.63;7.28;;;;;;;22.25;45.29;101281.16;4976977;28;20057;-62
2021/09/14 00:52:39;;;;;;;9.43;6.30;;;;;;;22.21;45.67;101280.69;4975783;28;20047;-62
2021/09/14 00:55:05;;;;;;;12.10;7.85;;;;;;;22.18;46.41;101282.94;4977005;28;20027;-63
2021/09/14 00:57:30;;;;;;;12.93;8.02;;;;;;;22.16;45.51;101285.88;4975622;28;20030;-62
2021/09/14 00:59:56;;;;;;;11.50;7.30;;;;;;;22.14;46.42;101281.66;4975731;28;20043;-62
2021/09/14 01:02:21;;;;;;;7.05;4.30;;;;;;;22.12;46.39;101281.81;4959746;28;20025;-62
2021/09/14 01:04:47;;;;;;;6.75;4.13;;;;;;;22.05;46.38;101272.75;4977058;28;20046;-61
2021/09/14 01:07:12;;;;;;;4.47;3.45;;;;;;;22.05;45.63;101283.66;4975929;28;20054;-62
2021/09/14 01:09:39;;;;;;;10.00;6.63;;;;;;;22.00;45.70;101275.19;4976971;28;20513;-62
2021/09/14 01:12:04;;;;;;;11.65;6.65;;;;;;;21.90;46.14;101264.59;4976704;28;20042;-62
2021/09/14 01:14:30;;;;;;;12.13;7.55;;;;;;;21.90;46.50;101272.78;4975734;28;20384;-61
2021/09/14 01:16:55;;;;;;;11.82;7.47;;;;;;;21.84;46.74;101265.31;4976598;28;20120;-61
2021/09/14 01:19:21;;;;;;;11.05;6.18;;;;;;;21.81;46.29;101259.41;4976637;28;20042;-61
2021/09/14 01:21:46;;;;;;;11.30;7.25;;;;;;;21.77;46.04;101264.41;4975416;28;20030;-61
2021/09/14 01:24:13;;;;;;;14.15;7.93;;;;;;;21.73;46.73;101256.78;4976581;28;20053;-61
2021/09/14 01:26:38;;;;;;;15.43;8.80;;;;;;;21.74;46.84;101261.22;4977035;28;20050;-62
2021/09/14 01:29:11;;;;;;;12.88;7.57;;;;;;;21.71;47.03;101253.41;4976790;28;20045;-61
2021/09/14 01:31:37;;;;;;;16.83;8.48;;;;;;;21.69;46.80;101255.50;4975561;28;20023;-62
2021/09/14 01:34:03;;;;;;;10.57;7.82;;;;;;;21.66;46.51;101256.72;4976704;28;20034;-61
2021/09/14 01:36:29;;;;;;;13.02;8.05;;;;;;;21.64;46.13;101247.00;4975454;28;20487;-61
2021/09/14 01:38:55;;;;;;;11.32;7.20;;;;;;;21.64;46.36;101257.91;4975394;28;20110;-61
2021/09/14 01:41:20;;;;;;;13.48;7.30;;;;;;;21.63;46.18;101250.78;4975159;28;20038;-61
2021/09/14 01:43:46;;;;;;;14.10;8.25;;;;;;;21.62;46.83;101257.28;4974906;28;20129;-61
2021/09/14 01:46:12;;;;;;;9.32;6.82;;;;;;;21.62;46.49;101254.53;4976374;28;20026;-61
2021/09/14 01:48:38;;;;;;;13.88;8.35;;;;;;;21.62;46.71;101257.28;4976012;28;20031;-61
2021/09/14 01:51:04;;;;;;;7.97;5.68;;;;;;;21.60;46.45;101259.34;4975533;28;20533;-61
2021/09/14 01:53:29;;;;;;;9.02;5.95;;;;;;;21.58;46.95;101258.72;4976532;28;20520;-61
2021/09/14 01:55:58;;;;;;;11.07;6.25;;;;;;;21.53;47.11;101248.34;4976101;28;20053;-61
2021/09/14 01:58:23;;;;;;;12.50;6.95;;;;;;;21.51;46.66;101258.59;4975713;28;20435;-61
2021/09/14 02:33:55;;;;;;;15.35;5.90;;;;;;;21.14;46.91;101234.19;4938152;28;20575;-61
2021/09/14 03:00:24;;;;;;;11.43;7.03;;;;;;;21.01;47.52;101232.09;4975042;28;20042;-62
2021/09/14 03:02:50;;;;;;;10.63;6.32;;;;;;;20.96;47.52;101220.91;4975160;28;20035;-61
2021/09/14 03:05:16;;;;;;;12.48;7.38;;;;;;;20.99;46.70;101222.41;4974613;28;20054;-61
2021/09/14 03:07:41;;;;;;;14.18;7.78;;;;;;;20.99;47.27;101215.09;4975947;28;20037;-61
2021/09/14 03:10:07;;;;;;;14.23;6.75;;;;;;;20.96;47.51;101214.63;4958750;28;20129;-61
2021/09/14 03:12:32;;;;;;;12.57;6.10;;;;;;;20.89;47.36;101203.63;4975949;28;20033;-61
2021/09/14 03:14:58;;;;;;;12.68;7.32;;;;;;;20.88;47.00;101204.66;4974784;28;20030;-61
2021/09/14 03:17:23;;;;;;;9.43;6.00;;;;;;;20.89;47.31;101203.63;4974736;28;20484;-61
2021/09/14 03:19:48;;;;;;;9.75;6.38;;;;;;;20.86;47.30;101198.53;4976445;28;20395;-61
2021/09/14 03:22:14;;;;;;;11.02;7.15;;;;;;;20.85;47.00;101197.69;4975882;28;20034;-61
2021/09/14 03:24:39;;;;;;;12.75;6.30;;;;;;;20.83;46.85;101188.00;4975864;28;20027;-61
2021/09/14 03:27:05;;;;;;;10.63;7.38;;;;;;;20.85;47.75;101191.41;4974971;28;20047;-61
2021/09/14 03:29:30;;;;;;;10.23;6.38;;;;;;;20.85;47.34;101189.50;4958802;28;20038;-62
2021/09/14 03:31:55;;;;;;;10.90;7.30;;;;;;;20.86;47.27;101184.91;4975762;28;20507;-61
2021/09/14 03:34:21;;;;;;;17.20;8.15;;;;;;;20.87;47.41;101179.31;4975994;28;20177;-61
2021/09/14 03:36:47;;;;;;;13.60;8.48;;;;;;;20.89;47.94;101176.38;4975538;28;20041;-61
2021/09/14 03:39:12;;;;;;;15.20;8.68;;;;;;;20.92;46.94;101168.69;4975704;28;20460;-61
2021/09/14 03:41:37;;;;;;;15.20;9.32;;;;;;;20.97;47.18;101175.44;4974649;28;20038;-61
2021/09/14 03:44:03;;;;;;;15.65;9.07;;;;;;;20.98;47.57;101169.81;4975867;28;20067;-61
2021/09/14 03:46:28;;;;;;;17.33;8.88;;;;;;;21.00;47.75;101172.34;4975574;28;20046;-61
2021/09/14 03:48:54;;;;;;;17.23;8.98;;;;;;;20.99;47.78;101176.09;4975385;28;20081;-61
2021/09/14 03:51:20;;;;;;;16.30;8.50;;;;;;;20.99;47.19;101181.56;4974595;28;20055;-61
2021/09/14 03:53:45;;;;;;;18.20;10.00;;;;;;;20.98;47.85;101180.72;4975486;28;20455;-61
2021/09/14 03:56:10;;;;;;;16.17;9.63;;;;;;;20.98;47.28;101191.59;4975654;28;20034;-61
2021/09/14 03:58:36;;;;;;;16.33;9.05;;;;;;;20.98;47.45;101185.31;4975579;28;20027;-61
2021/09/14 04:01:01;;;;;;;16.42;9.23;;;;;;;20.95;47.35;101186.53;4975484;28;20031;-61
2021/09/14 04:11:14;;;;;;;16.88;9.27;;;;;;;21.03;47.47;101188.31;4975662;28;20191;-61
2021/09/14 04:13:39;;;;;;;17.33;9.50;;;;;;;21.03;47.84;101199.19;4960449;28;20146;-61
2021/09/14 04:16:05;;;;;;;17.17;9.90;;;;;;;21.01;47.58;101183.06;4978995;28;20038;-61
2021/09/14 04:18:30;;;;;;;12.20;7.53;;;;;;;21.01;47.23;101184.94;4977441;28;20034;-61
2021/09/14 04:20:56;;;;;;;13.27;7.15;;;;;;;20.96;47.65;101185.50;4978766;28;20122;-61
2021/09/14 04:23:21;;;;;;;14.40;8.00;;;;;;;20.91;47.60;101185.19;4979198;28;20030;-61
2021/09/14 04:25:46;;;;;;;16.20;8.35;;;;;;;20.87;47.23;101189.34;4979376;28;20030;-61
2021/09/14 04:28:12;;;;;;;12.10;8.15;;;;;;;20.83;47.44;101188.88;4977486;28;20062;-61
2021/09/14 04:30:37;;;;;;;20.48;9.45;;;;;;;20.80;47.85;101177.50;4979011;28;20034;-61
2021/09/14 04:33:03;;;;;;;12.40;7.70;;;;;;;20.78;47.47;101174.97;4978667;28;20031;-61
2021/09/14 04:35:28;;;;;;;14.82;8.68;;;;;;;20.76;47.40;101170.75;4978201;28;20062;-61
2021/09/14 04:37:53;;;;;;;17.52;9.77;;;;;;;20.74;47.56;101176.38;4978600;28;20033;-62
2021/09/14 04:40:19;;;;;;;19.42;11.00;;;;;;;20.76;47.57;101173.47;4978732;28;20031;-61
2021/09/14 04:42:44;;;;;;;18.50;10.38;;;;;;;20.76;48.14;101168.03;4978539;28;20026;-61
2021/09/14 04:45:10;;;;;;;20.45;10.63;;;;;;;20.80;47.96;101163.88;4978552;28;20034;-61
2021/09/14 04:47:35;;;;;;;22.40;12.20;;;;;;;20.82;48.33;101165.41;4977550;28;20077;-61
2021/09/14 04:50:01;;;;;;;21.63;11.45;;;;;;;20.84;48.15;101159.75;4977386;28;20030;-61
2021/09/14 04:52:26;;;;;;;19.10;11.30;;;;;;;20.87;47.96;101153.94;4978201;28;20054;-61
2021/09/14 04:54:52;;;;;;;22.88;11.88;;;;;;;20.96;47.92;101165.59;4977064;28;20387;-61
2021/09/14 04:57:17;;;;;;;22.23;11.85;;;;;;;20.99;48.10;101166.06;4978496;28;20034;-61
2021/09/14 04:59:42;;;;;;;24.70;12.35;;;;;;;21.01;47.81;101164.00;4978302;28;20105;-61
2021/09/14 05:02:08;;;;;;;19.80;11.15;;;;;;;21.04;47.80;101163.63;4977359;28;20470;-61
2021/09/14 05:04:33;;;;;;;21.38;12.45;;;;;;;21.06;47.98;101161.53;4977646;28;20023;-61
2021/09/14 05:06:58;;;;;;;22.75;11.35;;;;;;;21.05;48.46;101170.72;4978087;28;20026;-61
2021/09/14 05:09:24;;;;;;;23.88;11.52;;;;;;;21.07;47.54;101167.84;4978175;28;20042;-61
2021/09/14 05:11:50;;;;;;;22.52;11.25;;;;;;;21.06;48.08;101158.81;4977742;28;20023;-61
2021/09/14 05:14:15;;;;;;;22.40;11.57;;;;;;;21.09;47.93;101154.91;4977870;28;20034;-61
2021/09/14 05:16:40;;;;;;;21.92;11.05;;;;;;;21.08;47.94;101148.59;4976523;28;20042;-61
2021/09/14 05:19:08;;;;;;;23.90;12.02;;;;;;;21.10;48.00;101149.28;4977475;28;20027;-61
2021/09/14 05:21:33;;;;;;;19.60;11.60;;;;;;;21.14;48.32;101145.13;4977874;28;20388;-61
2021/09/14 05:23:59;;;;;;;20.63;11.90;;;;;;;21.17;48.45;101142.00;4977319;28;20022;-61
2021/09/14 05:26:26;;;;;;;21.35;11.00;;;;;;;21.19;47.97;101144.56;4977369;28;20058;-61
2021/09/14 05:28:51;;;;;;;21.38;11.82;;;;;;;21.21;48.00;101148.78;4986371;28;20018;-61
2021/09/14 05:31:17;;;;;;;20.55;11.40;;;;;;;21.24;48.17;101142.97;4977329;28;20062;-61
2021/09/14 05:33:45;;;;;;;21.83;11.32;;;;;;;21.27;47.86;101141.72;4977172;28;20041;-61
2021/09/14 05:36:10;;;;;;;23.48;13.15;;;;;;;21.31;47.93;101143.88;4976744;28;20050;-61
2021/09/14 05:38:36;;;;;;;20.73;12.18;;;;;;;21.31;48.30;101143.88;4976460;28;20120;-61
2021/09/14 05:41:01;;;;;;;21.27;11.52;;;;;;;21.36;48.78;101140.56;4991820;28;20113;-61
2021/09/14 05:43:28;;;;;;;17.40;10.68;;;;;;;21.38;48.22;101141.22;4975369;28;20062;-61
2021/09/14 05:45:54;;;;;;;23.08;12.10;;;;;;;21.42;48.58;101146.09;4976906;28;20112;-61
2021/09/14 05:48:39;;;;;;;20.80;11.45;;;;;;;21.46;48.45;101150.16;4976726;28;20094;-62
2021/09/14 05:51:05;;;;;;;22.67;11.65;;;;;;;21.52;48.68;101144.97;4976228;28;20046;-61
2021/09/14 05:53:30;;;;;;;20.08;11.73;;;;;;;21.58;48.23;101149.66;4975260;28;20081;-61
2021/09/14 05:55:55;;;;;;;23.65;13.40;;;;;;;21.64;48.12;101143.38;4976630;28;20503;-61
2021/09/14 05:58:21;;;;;;;20.25;11.50;;;;;;;21.69;47.78;101138.22;4976062;28;20030;-61
2021/09/14 06:00:46;;;;;;;20.88;12.30;;;;;;;21.72;48.49;101140.56;4975975;28;20031;-62
2021/09/14 06:03:11;;;;;;;20.90;11.80;;;;;;;21.81;48.28;101142.09;4975156;28;20038;-62
2021/09/14 06:05:37;;;;;;;24.20;12.07;;;;;;;21.88;47.91;101140.34;4975845;28;20462;-62
2021/09/14 06:08:03;;;;;;;22.70;11.48;;;;;;;21.91;47.76;101145.41;4975684;28;20018;-62
2021/09/14 06:10:28;;;;;;;20.33;11.82;;;;;;;21.94;47.72;101147.75;4976113;28;20085;-62
2021/09/14 06:12:53;;;;;;;24.17;11.77;;;;;;;22.00;47.78;101147.78;4975574;28;20035;-62
2021/09/14 06:15:19;;;;;;;19.17;11.10;;;;;;;22.05;47.90;101150.78;4975979;28;20055;-62
2021/09/14 06:17:44;;;;;;;23.10;11.57;;;;;;;22.08;48.30;101160.47;4975873;28;20031;-62
2021/09/14 06:20:10;;;;;;;19.65;10.43;;;;;;;22.16;48.43;101159.50;4975673;28;20043;-63
2021/09/14 06:22:36;;;;;;;18.05;11.00;;;;;;;22.20;48.31;101164.34;4975300;28;20023;-62
2021/09/14 06:25:02;;;;;;;21.83;11.60;;;;;;;22.26;47.47;101160.84;4975466;28;20026;-63
2021/09/14 06:27:27;;;;;;;20.70;11.57;;;;;;;22.34;47.48;101163.41;4977156;28;20035;-63
2021/09/14 06:29:53;;;;;;;18.45;11.07;;;;;;;22.43;47.43;101156.78;4994707;28;20033;-63
2021/09/14 06:32:18;;;;;;;19.25;11.48;;;;;;;22.50;47.90;101154.94;4994798;28;20034;-63
2021/09/14 06:34:43;;;;;;;21.77;11.07;;;;;;;22.57;47.39;101147.66;4994870;28;20109;-63
2021/09/14 06:37:09;;;;;;;23.75;10.52;;;;;;;22.54;47.41;101145.31;4994167;28;20030;-63
2021/09/14 06:39:35;;;;;;;17.75;10.68;;;;;;;22.56;47.47;101162.31;4994765;28;20073;-63
2021/09/14 06:42:00;;;;;;;15.55;9.82;;;;;;;22.58;47.47;101148.50;4994279;28;20026;-63
2021/09/14 06:44:26;;;;;;;15.13;9.18;;;;;;;22.64;47.67;101157.81;4994747;28;20501;-63
2021/09/14 06:46:51;;;;;;;18.23;10.32;;;;;;;22.68;48.21;101150.88;4993252;28;20033;-63
2021/09/14 06:49:18;;;;;;;19.95;10.63;;;;;;;22.76;48.17;101151.56;4994486;28;20076;-63
2021/09/14 06:51:43;;;;;;;15.95;10.63;;;;;;;22.82;47.95;101144.47;4992101;28;20394;-63
2021/09/14 06:54:09;;;;;;;17.98;10.50;;;;;;;22.96;47.41;101151.69;4994170;28;20061;-62
2021/09/14 06:56:34;;;;;;;19.95;9.80;;;;;;;23.01;47.90;101149.19;4994333;28;20046;-62
2021/09/14 06:59:00;;;;;;;18.27;10.45;;;;;;;23.09;47.94;101140.81;4994127;28;20076;-62
2021/09/14 07:01:26;;;;;;;17.00;10.35;;;;;;;23.30;47.74;101143.44;4993145;28;20033;-62
2021/09/14 07:03:52;;;;;;;18.02;10.27;;;;;;;23.59;46.80;101148.63;4994080;28;20442;-61
2021/09/14 07:06:17;;;;;;;17.10;8.70;;;;;;;23.84;47.12;101145.31;4994244;28;20026;-62
2021/09/14 07:08:42;;;;;;;18.35;9.45;;;;;;;24.06;46.27;101141.34;4993066;28;20493;-62
2021/09/14 07:11:08;;;;;;;14.63;8.85;;;;;;;24.24;46.23;101142.44;4994262;28;20033;-62
2021/09/14 07:13:33;;;;;;;14.80;9.45;;;;;;;24.46;46.05;101132.09;4994420;28;20031;-62
2021/09/14 07:15:59;;;;;;;19.17;8.90;;;;;;;24.65;46.47;101133.97;4994547;28;20034;-62
2021/09/14 07:18:24;;;;;;;14.95;9.32;;;;;;;24.86;45.85;101139.22;4993524;28;20022;-62
2021/09/14 07:20:49;;;;;;;14.27;8.50;;;;;;;25.01;45.92;101138.13;4994020;28;20031;-62
2021/09/14 07:23:15;;;;;;;13.02;8.38;;;;;;;25.06;45.67;101133.69;4994104;28;20027;-62
2021/09/14 07:25:42;;;;;;;16.33;8.45;;;;;;;25.33;46.32;101131.66;4993412;28;20101;-62
2021/09/14 07:28:10;;;;;;;16.33;7.75;;;;;;;25.47;45.47;101125.09;4994235;28;20022;-61
2021/09/14 07:30:36;;;;;;;12.30;7.60;;;;;;;25.72;45.68;101127.88;4993056;28;20022;-62
2021/09/14 07:33:02;;;;;;;14.40;7.82;;;;;;;25.91;45.05;101122.25;4993175;28;20462;-62
2021/09/14 07:35:30;;;;;;;15.00;8.38;;;;;;;26.14;45.28;101134.59;4994417;28;20031;-62
2021/09/14 07:37:56;;;;;;;14.20;7.03;;;;;;;26.29;45.14;101126.88;4993372;28;20026;-62
2021/09/14 07:40:21;;;;;;;14.27;7.28;;;;;;;26.47;45.04;101135.16;4992995;28;20037;-62
2021/09/14 07:42:47;;;;;;;14.23;7.75;;;;;;;26.62;44.68;101143.88;4993952;28;20034;-62
2021/09/14 07:45:12;;;;;;;11.40;7.32;;;;;;;26.69;44.40;101133.66;4992750;28;20041;-62
2021/09/14 07:47:38;;;;;;;14.95;6.70;;;;;;;26.85;44.26;101124.88;4996425;28;20026;-62
2021/09/14 07:50:04;;;;;;;11.95;7.15;;;;;;;27.00;43.78;101130.81;4996796;28;20022;-62
2021/09/14 07:52:29;;;;;;;10.63;6.88;;;;;;;27.14;43.70;101136.97;4997851;28;20074;-62
2021/09/14 07:54:54;;;;;;;8.85;6.85;;;;;;;27.25;43.99;101127.16;4996699;28;20061;-61
2021/09/14 07:57:20;;;;;;;9.48;6.18;;;;;;;27.41;44.19;101132.03;4997674;28;20029;-62
2021/09/14 07:59:45;;;;;;;11.15;6.57;;;;;;;27.50;43.87;101131.47;4997413;28;20034;-62
2021/09/14 08:02:10;;;;;;;16.30;6.22;;;;;;;27.59;43.08;101140.25;4994855;28;20117;-62
2021/09/14 08:04:36;;;;;;;11.45;6.32;;;;;;;27.58;43.91;101144.09;4986020;28;20511;-61
2021/09/14 08:07:01;;;;;;;12.85;6.80;;;;;;;27.49;43.22;101146.31;4977946;28;20034;-62
2021/09/14 08:09:29;;;;;;;10.60;6.28;;;;;;;27.45;43.52;101133.22;4977028;28;20070;-61
2021/09/14 08:11:56;;;;;;;10.95;5.78;;;;;;;27.63;43.56;101136.81;4978101;28;20488;-62
2021/09/14 08:14:21;;;;;;;12.10;6.70;;;;;;;27.63;43.28;101131.31;4977802;28;20038;-62
2021/09/14 08:16:46;;;;;;;10.95;6.85;;;;;;;27.62;43.37;101140.63;4990516;28;20038;-62
2021/09/14 08:19:12;;;;;;;7.63;5.80;;;;;;;27.86;42.60;101141.56;4997470;28;20030;-62
2021/09/14 08:21:37;;;;;;;12.75;6.45;;;;;;;28.17;42.35;101129.41;4997341;28;20022;-62
2021/09/14 08:24:03;;;;;;;12.13;5.90;;;;;;;28.54;42.95;101127.28;4995987;28;20058;-59
2021/09/14 08:26:28;;;;;;;9.00;5.60;;;;;;;28.78;41.86;101129.00;4990782;28;20030;-59
2021/09/14 08:28:53;;;;;;;8.77;5.90;;;;;;;28.99;42.97;101128.38;4980380;28;20019;-60
2021/09/14 08:31:19;;;;;;;8.68;5.57;;;;;;;29.26;42.02;101135.03;4978076;28;20486;-60
2021/09/14 08:33:45;;;;;;;10.07;6.30;;;;;;;29.53;41.41;101140.00;4995903;28;20022;-59
2021/09/14 08:36:10;;;;;;;9.13;5.93;;;;;;;29.76;41.16;101137.16;4977545;28;20031;-59
2021/09/14 08:38:36;;;;;;;7.53;5.65;;;;;;;30.00;41.18;101124.91;4977378;28;20070;-59
2021/09/14 08:41:03;;;;;;;11.10;5.78;;;;;;;30.28;40.99;101124.00;4977554;28;20037;-59
2021/09/14 08:43:29;;;;;;;7.78;5.38;;;;;;;30.62;40.82;101133.13;4977588;28;20089;-59
2021/09/14 08:45:54;;;;;;;8.07;5.45;;;;;;;30.94;40.18;101140.56;4979456;28;20098;-59
2021/09/14 08:48:21;;;;;;;8.30;5.78;;;;;;;31.10;39.63;101134.13;4983395;28;20030;-59
2021/09/14 08:50:46;;;;;;;7.30;5.15;;;;;;;31.23;39.93;101124.59;4976097;28;20487;-59
2021/09/14 08:53:11;;;;;;;8.93;5.43;;;;;;;30.91;40.30;101116.13;4977145;28;20173;-59
2021/09/14 08:55:37;;;;;;;14.23;5.38;;;;;;;30.76;40.55;101104.84;4977620;28;20030;-59
2021/09/14 08:58:06;;;;;;;13.65;4.80;;;;;;;30.62;40.62;101102.69;4976709;28;20080;-60
2021/09/14 09:00:33;;;;;;;9.90;5.35;;;;;;;30.47;40.29;101111.59;4977000;28;20506;-60
2021/09/14 09:02:59;;;;;;;10.43;4.85;;;;;;;30.41;40.53;101091.34;4977279;28;20046;-60
2021/09/14 09:05:43;;;;;;;7.13;4.85;;;;;;;30.21;40.37;101113.09;4977089;28;20023;-60
2021/09/14 09:08:17;;;;;;;6.65;4.55;;;;;;;30.01;40.65;101112.78;4975984;28;20027;-60
2021/09/14 09:10:43;;;;;;;6.05;4.40;;;;;;;30.08;40.41;101113.44;4976957;28;20391;-60
2021/09/14 09:13:08;;;;;;;8.52;5.00;;;;;;;30.50;40.09;101111.09;4976716;28;20027;-60
2021/09/14 09:15:33;;;;;;;9.35;5.20;;;;;;;31.01;39.72;101107.16;4975538;28;20427;-59
2021/09/14 09:18:04;;;;;;;7.82;5.03;;;;;;;31.29;39.44;101109.72;4975479;28;20038;-60
2021/09/14 09:20:30;;;;;;;9.85;5.13;;;;;;;31.48;39.27;101102.78;4976986;28;20034;-59
2021/09/14 09:23:06;;;;;;;7.38;4.35;;;;;;;31.76;38.86;101109.16;4975758;28;20034;-60
2021/09/14 09:25:32;;;;;;;8.57;4.25;;;;;;;32.07;38.63;101123.06;4975589;28;20117;-59
2021/09/14 09:28:08;;;;;;;6.35;4.53;;;;;;;32.41;38.46;101120.00;4976779;28;20027;-59
2021/09/14 09:30:37;;;;;;;5.68;4.43;;;;;;;32.70;38.83;101124.13;4975530;28;20157;-59
2021/09/14 09:33:07;;;;;;;7.60;4.53;;;;;;;33.04;38.24;101130.13;4976753;28;20447;-60
2021/09/14 09:35:35;;;;;;;7.75;4.00;;;;;;;33.36;38.00;101133.66;4975457;28;20022;-59
2021/09/14 09:38:01;;;;;;;9.10;4.45;;;;;;;33.72;36.96;101129.06;4976549;28;20022;-60
2021/09/14 09:40:31;;;;;;;5.93;4.07;;;;;;;34.12;36.92;101129.13;4976430;28;20081;-59
2021/09/14 09:42:59;;;;;;;4.97;3.97;;;;;;;34.91;35.90;101132.09;4976357;28;20041;-60
2021/09/14 09:45:25;;;;;;;5.35;3.95;;;;;;;35.88;34.23;101135.28;4976138;28;20026;-60
2021/09/14 09:47:50;;;;;;;6.70;4.43;;;;;;;35.79;34.61;101128.69;4975245;28;20053;-59
2021/09/14 09:50:16;;;;;;;7.05;4.20;;;;;;;35.86;34.84;101123.59;4976132;28;20451;-59
2021/09/14 09:52:44;;;;;;;7.45;4.72;;;;;;;35.98;34.49;101108.19;4977003;28;20102;-60
2021/09/14 09:55:10;;;;;;;4.85;3.85;;;;;;;36.26;34.15;101120.53;4975562;28;20074;-60
2021/09/14 09:57:36;;;;;;;6.55;3.88;;;;;;;36.50;34.09;101113.06;4971862;28;20514;-60
2021/09/14 10:00:08;;;;;;;8.73;5.05;;;;;;;36.71;33.80;101113.69;4978258;28;20026;-60
2021/09/14 10:02:34;;;;;;;6.50;3.88;;;;;;;36.79;33.37;101115.84;4978947;28;20031;-59
2021/09/14 10:05:01;;;;;;;6.93;4.18;;;;;;;36.89;32.93;101109.28;4978536;28;20042;-60
2021/09/14 10:07:27;;;;;;;6.85;4.03;;;;;;;37.11;32.74;101116.03;4995160;28;20100;-59
2021/09/14 10:09:57;;;;;;;10.02;4.22;;;;;;;37.51;32.76;101102.66;4977317;28;20029;-60
2021/09/14 10:12:26;;;;;;;5.63;3.95;;;;;;;37.63;32.01;101086.28;4995224;28;20022;-61
2021/09/14 10:15:03;;;;;;;4.15;3.75;;;;;;;37.61;32.37;101096.91;4995115;28;20471;-60
2021/09/14 10:17:30;;;;;;;6.43;3.63;;;;;;;37.62;32.58;101092.97;4995280;28;20027;-60
2021/09/14 10:19:56;;;;;;;6.90;3.78;;;;;;;37.32;32.46;101095.06;4977957;28;20053;-61
2021/09/14 10:22:26;;;;;;;10.57;4.25;;;;;;;37.79;32.38;101082.09;4995408;28;20027;-61
2021/09/14 10:24:56;;;;;;;6.13;4.05;;;;;;;38.24;31.68;101086.94;4995135;28;20093;-61
2021/09/14 10:27:21;;;;;;;6.38;4.07;;;;;;;38.63;31.02;101082.91;4995049;28;20018;-60
2021/09/14 10:29:57;;;;;;;6.57;3.38;;;;;;;38.83;30.62;101077.75;4995217;28;20378;-60
2021/09/14 10:32:23;;;;;;;4.90;3.58;;;;;;;38.44;30.98;101078.19;4994664;28;20030;-61
2021/09/14 10:34:55;;;;;;;5.63;3.58;;;;;;;38.24;31.50;101072.97;4977518;28;20109;-60
2021/09/14 10:37:21;;;;;;;7.85;3.72;;;;;;;37.86;31.70;101066.56;4994676;28;20041;-60
2021/09/14 10:39:46;;;;;;;4.97;3.60;;;;;;;37.49;32.21;101071.38;4995292;28;20026;-60
2021/09/14 10:42:19;;;;;;;6.28;3.90;;;;;;;37.19;32.89;101073.44;4994576;28;20041;-61
2021/09/14 10:44:46;;;;;;;6.55;4.03;;;;;;;37.02;32.56;101072.28;4977157;28;20026;-61
2021/09/14 10:47:14;;;;;;;7.07;3.28;;;;;;;36.81;32.62;101066.06;4994538;28;20030;-60
2021/09/14 10:49:57;;;;;;;7.70;3.35;;;;;;;36.67;32.13;101065.13;4994848;28;20125;-60
2021/09/14 10:52:37;;;;;;;5.60;3.45;;;;;;;36.53;32.35;101066.97;4994722;28;20101;-60
2021/09/14 10:55:23;;;;;;;4.88;3.15;;;;;;;36.48;32.89;101062.25;4987172;28;20129;-60
2021/09/14 10:57:51;;;;;;;5.22;4.07;;;;;;;36.48;32.71;101056.66;4993703;28;20035;-61
2021/09/14 11:00:18;;;;;;;6.20;3.80;;;;;;;36.44;32.71;101065.91;4994391;28;20034;-60
2021/09/14 11:03:04;;;;;;;4.78;3.45;;;;;;;36.31;32.70;101061.03;4993429;28;20076;-60
2021/09/14 11:05:31;;;;;;;5.72;3.47;;;;;;;36.12;33.50;101058.97;4994355;28;20538;-60
2021/09/14 11:08:00;;;;;;;6.63;3.50;;;;;;;35.97;33.55;101053.50;4994148;28;20029;-61
2021/09/14 11:10:32;;;;;;;4.55;4.07;;;;;;;35.72;33.89;101047.28;4994539;28;20441;-60
2021/09/14 11:12:57;;;;;;;4.07;2.95;;;;;;;35.42;33.97;101038.00;4994701;28;20034;-60
2021/09/14 11:15:25;;;;;;;4.30;3.55;;;;;;;35.20;33.75;101042.31;4994869;28;20038;-60
2021/09/14 11:17:50;;;;;;;6.32;3.25;;;;;;;34.97;34.54;101043.78;4994970;28;20472;-61
2021/09/14 11:20:18;;;;;;;8.13;3.47;;;;;;;34.75;34.63;101055.31;4994986;28;20042;-60
2021/09/14 11:22:44;;;;;;;4.95;3.70;;;;;;;34.57;34.52;101057.81;4998814;28;20033;-60
2021/09/14 11:25:14;;;;;;;6.93;3.58;;;;;;;34.36;35.55;101060.69;5001496;28;20052;-60
2021/09/14 11:28:01;;;;;;;7.03;3.58;;;;;;;34.15;34.93;101049.84;5001642;28;20022;-60
2021/09/14 11:30:27;;;;;;;6.90;3.03;;;;;;;33.94;35.16;101049.84;5016509;28;20026;-60
2021/09/14 11:32:54;;;;;;;5.85;3.13;;;;;;;33.77;36.35;101048.44;5001402;28;20026;-60
2021/09/14 11:35:20;;;;;;;7.50;3.30;;;;;;;33.60;36.60;101051.47;5000401;28;20117;-60
2021/09/14 11:37:57;;;;;;;5.25;3.03;;;;;;;33.48;35.92;101045.31;5000404;28;20061;-60
2021/09/14 11:40:22;;;;;;;6.18;3.30;;;;;;;33.46;35.65;101053.09;5001591;28;20026;-61
2021/09/14 11:42:55;;;;;;;6.40;3.55;;;;;;;33.46;36.32;101047.53;5001100;28;20040;-60
2021/09/14 11:45:23;;;;;;;4.07;3.20;;;;;;;33.51;35.85;101050.31;4990567;28;20030;-61
2021/09/14 11:47:48;;;;;;;8.30;3.38;;;;;;;33.61;35.71;101052.31;4986367;28;20054;-60
2021/09/14 11:50:26;;;;;;;9.98;3.67;;;;;;;33.61;36.70;101049.53;4981840;28;20424;-60
2021/09/14 11:53:18;;;;;;;6.10;3.28;;;;;;;33.60;35.64;101043.16;4981706;28;20109;-60
2021/09/14 11:55:47;;;;;;;4.30;3.65;;;;;;;33.53;36.40;101048.09;4989240;28;20133;-60
2021/09/14 11:58:13;;;;;;;6.88;2.58;;;;;;;33.50;35.99;101043.09;5001115;28;20030;-60
2021/09/14 12:00:46;;;;;;;5.13;3.10;;;;;;;33.54;37.36;101044.22;4992722;28;20030;-60
2021/09/14 12:03:17;;;;;;;8.75;3.65;;;;;;;33.66;36.36;101044.81;4993232;28;20026;-61
2021/09/14 12:05:55;;;;;;;8.73;3.17;;;;;;;33.95;36.10;101045.94;4995540;28;20050;-60
2021/09/14 12:08:28;;;;;;;3.90;2.60;;;;;;;34.19;36.18;101048.19;4981539;28;20486;-60
2021/09/14 12:10:53;;;;;;;7.88;3.30;;;;;;;34.40;35.48;101041.44;4999413;28;20031;-60
2021/09/14 12:13:19;;;;;;;6.05;3.22;;;;;;;34.42;35.60;101039.25;5000931;28;20114;-60
2021/09/14 12:15:46;;;;;;;3.55;2.72;;;;;;;34.38;36.55;101049.25;4999988;28;20038;-60
2021/09/14 12:18:16;;;;;;;6.63;3.15;;;;;;;34.31;35.75;101045.94;5000880;28;20105;-60
2021/09/14 12:20:45;;;;;;;8.43;3.83;;;;;;;34.24;35.81;101039.81;5000619;28;20054;-61
2021/09/14 12:23:11;;;;;;;7.55;3.10;;;;;;;34.22;36.24;101030.94;5000955;28;20026;-60